createdAt,value
2023-01-12T00:02:00.625Z,6.85
2023-01-12T00:04:30.624Z,6.80
2023-01-12T00:06:58.468Z,6.75
2023-01-12T00:09:26.096Z,6.56
2023-01-12T00:11:53.677Z,6.42
2023-01-12T00:14:21.248Z,6.30
2023-01-12T00:16:50.175Z,6.25
2023-01-12T00:19:19.585Z,6.13
2023-01-12T00:21:58.229Z,6.06
2023-01-12T00:24:27.294Z,6.02
2023-01-12T00:26:55.898Z,6.01
2023-01-12T00:29:24.454Z,6.01
2023-01-12T00:31:54.537Z,6.00
2023-01-12T00:34:22.985Z,5.99
2023-01-12T00:36:50.994Z,5.98
2023-01-12T00:39:18.772Z,5.94
2023-01-12T00:42:04.048Z,5.89
2023-01-12T00:44:49.370Z,5.87
2023-01-12T00:47:19.442Z,5.80
2023-01-12T00:49:47.515Z,5.77
2023-01-12T00:52:29.452Z,5.75
2023-01-12T00:54:58.666Z,5.68
2023-01-12T00:57:26.757Z,5.65
2023-01-12T00:59:55.206Z,5.64
2023-01-12T01:02:24.862Z,5.62
2023-01-12T01:04:52.464Z,5.63
2023-01-12T01:07:21.502Z,5.58
2023-01-12T01:09:49.306Z,5.56
2023-01-12T01:12:17.246Z,5.57
2023-01-12T01:14:44.884Z,5.60
2023-01-12T01:17:12.505Z,5.62
2023-01-12T01:19:43.303Z,5.61
2023-01-12T01:22:12.419Z,5.60
2023-01-12T01:24:40.057Z,5.59
2023-01-12T01:27:08.760Z,5.60
2023-01-12T01:29:36.426Z,5.63
2023-01-12T01:32:04.204Z,5.66
2023-01-12T01:34:31.878Z,5.67
2023-01-12T01:37:01.429Z,5.72
2023-01-12T01:39:29.020Z,5.78
2023-01-12T01:41:56.750Z,5.80
2023-01-12T01:44:50.635Z,5.85
2023-01-12T01:47:26.402Z,5.82
2023-01-12T01:49:56.460Z,5.81
2023-01-12T01:52:31.575Z,5.78
2023-01-12T01:55:02.851Z,5.75
2023-01-12T01:57:35.505Z,5.71
2023-01-12T02:00:06.997Z,5.69
2023-01-12T02:02:36.296Z,5.68
2023-01-12T02:05:04.647Z,5.65
2023-01-12T02:07:33.862Z,5.64
2023-01-12T02:10:01.846Z,5.63
2023-01-12T02:12:47.272Z,5.63
2023-01-12T02:15:33.086Z,5.64
2023-01-12T02:18:15.694Z,5.65
2023-01-12T02:20:50.458Z,5.65
2023-01-12T02:23:49.587Z,5.63
2023-01-12T02:27:03.322Z,5.59
2023-01-12T02:30:15.580Z,5.55
2023-01-12T02:32:56.316Z,5.55
2023-01-12T02:35:32.293Z,5.54
2023-01-12T02:38:08.919Z,5.55
2023-01-12T02:40:45.435Z,5.57
2023-01-12T02:43:17.823Z,5.64
2023-01-12T02:45:53.106Z,5.69
2023-01-12T02:48:28.394Z,5.75
2023-01-12T02:51:00.903Z,5.78
2023-01-12T02:53:33.359Z,5.84
2023-01-12T02:56:04.866Z,5.90
2023-01-12T02:58:37.451Z,5.93
2023-01-12T03:01:06.651Z,5.94
2023-01-12T03:03:39.601Z,5.98
2023-01-12T03:06:08.813Z,6.01
2023-01-12T03:08:40.233Z,6.04
2023-01-12T03:11:14.075Z,6.06
2023-01-12T03:13:47.015Z,6.07
2023-01-12T03:16:18.710Z,6.08
2023-01-12T03:18:52.167Z,6.04
2023-01-12T03:21:26.215Z,6.02
2023-01-12T03:24:01.254Z,6.00
2023-01-12T03:26:31.599Z,6.01
2023-01-12T03:29:06.284Z,6.00
2023-01-12T03:31:34.371Z,6.01
2023-01-12T03:34:04.425Z,6.02
2023-01-12T03:36:46.085Z,6.05
2023-01-12T03:39:21.155Z,6.05
2023-01-12T03:41:57.413Z,6.06
2023-01-12T03:44:35.478Z,6.08
2023-01-12T03:47:11.057Z,6.11
2023-01-12T03:49:46.719Z,6.13
2023-01-12T03:52:15.164Z,6.11
2023-01-12T03:54:45.015Z,6.14
2023-01-12T03:57:13.912Z,6.13
2023-01-12T03:59:42.515Z,6.15
2023-01-12T04:02:10.091Z,6.15
2023-01-12T04:04:37.735Z,6.18
2023-01-12T04:07:06.716Z,6.17
2023-01-12T04:09:34.363Z,6.16
2023-01-12T04:12:11.135Z,6.11
2023-01-12T04:14:39.289Z,6.06
2023-01-12T04:17:07.269Z,5.99
2023-01-12T04:19:34.852Z,5.96
2023-01-12T04:22:20.187Z,5.90
2023-01-12T04:24:49.412Z,5.86
2023-01-12T04:27:17.336Z,5.81
2023-01-12T04:29:45.560Z,5.77
2023-01-12T04:32:13.255Z,5.75
2023-01-12T04:34:40.846Z,5.74
2023-01-12T04:37:08.475Z,5.71
2023-01-12T04:39:36.076Z,5.71
2023-01-12T04:42:05.586Z,5.71
2023-01-12T04:44:34.927Z,5.70
2023-01-12T04:47:02.516Z,5.71
2023-01-12T04:49:30.069Z,5.71
2023-01-12T04:51:57.659Z,5.72
2023-01-12T04:54:25.590Z,5.73
2023-01-12T04:56:53.142Z,5.76
2023-01-12T04:59:22.130Z,5.78
2023-01-12T05:01:49.722Z,5.81
2023-01-12T05:04:17.737Z,5.85
2023-01-12T05:06:45.338Z,5.87
2023-01-12T05:09:30.498Z,5.90
2023-01-12T05:12:00.841Z,5.92
2023-01-12T05:14:30.159Z,5.97
2023-01-12T05:16:59.455Z,5.98
2023-01-12T05:19:27.081Z,6.01
2023-01-12T05:21:54.721Z,6.03
2023-01-12T05:24:22.332Z,6.06
2023-01-12T05:26:49.887Z,6.07
2023-01-12T05:29:17.432Z,6.13
2023-01-12T05:31:46.609Z,6.17
2023-01-12T05:34:14.278Z,6.20
2023-01-12T05:36:42.191Z,6.25
2023-01-12T05:39:09.770Z,6.27
2023-01-12T05:41:37.355Z,6.31
2023-01-12T05:44:03.984Z,6.37
2023-01-12T05:46:33.245Z,6.38
2023-01-12T05:49:02.159Z,6.41
2023-01-12T05:51:30.901Z,6.44
2023-01-12T05:53:58.513Z,6.47
2023-01-12T05:56:28.351Z,6.49
2023-01-12T05:58:58.356Z,6.49
2023-01-12T06:01:27.165Z,6.50
2023-01-12T06:03:56.978Z,6.54
2023-01-12T06:06:27.787Z,6.55
2023-01-12T06:08:55.711Z,6.56
2023-01-12T06:11:40.959Z,6.57
2023-01-12T06:14:10.136Z,6.57
2023-01-12T06:16:39.090Z,6.56
2023-01-12T06:19:07.027Z,6.55
2023-01-12T06:21:36.329Z,6.57
2023-01-12T06:24:04.065Z,6.58
2023-01-12T06:26:31.676Z,6.58
2023-01-12T06:28:59.250Z,6.61
2023-01-12T06:31:26.884Z,6.61
2023-01-12T06:33:54.417Z,6.61
2023-01-12T06:36:21.977Z,6.63
2023-01-12T06:38:50.934Z,6.63
2023-01-12T06:41:35.931Z,6.64
2023-01-12T06:44:03.520Z,6.65
2023-01-12T06:46:31.575Z,6.66
2023-01-12T06:48:59.955Z,6.66
2023-01-12T06:51:27.720Z,6.64
2023-01-12T06:53:56.661Z,6.65
2023-01-12T06:56:24.438Z,6.64
2023-01-12T06:58:52.055Z,6.63
2023-01-12T07:01:19.850Z,6.63
2023-01-12T07:03:47.473Z,6.65
2023-01-12T07:06:15.150Z,6.67
2023-01-12T07:08:43.322Z,6.67
2023-01-12T07:11:14.991Z,6.68
2023-01-12T07:13:42.568Z,6.68
2023-01-12T07:16:10.279Z,6.68
2023-01-12T07:18:37.915Z,6.68
2023-01-12T07:21:06.652Z,6.68
2023-01-12T07:23:34.837Z,6.68
2023-01-12T07:26:02.459Z,6.69
2023-01-12T07:28:33.646Z,6.68
2023-01-12T07:31:02.442Z,6.69
2023-01-12T07:33:30.154Z,6.72
2023-01-12T07:35:58.860Z,6.75
2023-01-12T07:38:26.653Z,6.78
2023-01-12T07:40:54.496Z,6.78
2023-01-12T07:43:22.088Z,6.82
2023-01-12T07:45:50.998Z,6.85
2023-01-12T07:48:18.579Z,6.85
2023-01-12T07:50:46.145Z,6.89
2023-01-12T07:53:13.760Z,6.91
2023-01-12T07:55:43.664Z,6.92
2023-01-12T07:58:11.493Z,6.95
2023-01-12T08:00:39.138Z,6.97
2023-01-12T08:03:10.431Z,7.01
2023-01-12T08:05:39.865Z,7.05
2023-01-12T08:08:08.321Z,7.07
2023-01-12T08:10:36.081Z,7.10
2023-01-12T08:13:03.707Z,7.12
2023-01-12T08:15:36.769Z,7.15
2023-01-12T08:18:11.085Z,7.18
2023-01-12T08:20:38.845Z,7.17
2023-01-12T08:23:11.056Z,7.22
2023-01-12T08:25:44.541Z,7.22
2023-01-12T08:28:18.355Z,7.23
2023-01-12T08:30:48.606Z,7.25
2023-01-12T08:33:17.869Z,7.27
2023-01-12T08:35:47.045Z,7.26
2023-01-12T08:38:14.777Z,7.28
2023-01-12T08:41:00.089Z,7.28
2023-01-12T08:43:45.173Z,7.30
2023-01-12T08:46:13.016Z,7.30
2023-01-12T08:48:41.987Z,7.31
2023-01-12T08:51:10.026Z,7.31
2023-01-12T08:53:37.601Z,7.32
2023-01-12T08:56:06.388Z,7.35
2023-01-12T08:58:33.959Z,7.35
2023-01-12T09:01:08.626Z,7.35
2023-01-12T09:03:36.251Z,7.37
2023-01-12T09:06:12.419Z,7.39
2023-01-12T09:08:40.001Z,7.42
2023-01-12T09:11:08.471Z,7.41
2023-01-12T09:13:36.546Z,7.42
2023-01-12T09:16:12.735Z,7.46
2023-01-12T09:18:41.522Z,7.46
2023-01-12T09:21:12.080Z,7.52
2023-01-12T09:23:40.247Z,7.53
2023-01-12T09:26:09.786Z,7.56
2023-01-12T09:28:38.268Z,7.61
2023-01-12T09:31:07.930Z,7.59
2023-01-12T09:33:36.511Z,7.61
2023-01-12T09:36:06.467Z,7.64
2023-01-12T09:38:36.188Z,7.66
2023-01-12T09:41:10.749Z,7.68
2023-01-12T09:43:56.503Z,7.71
2023-01-12T09:46:47.768Z,7.75
2023-01-12T09:49:17.396Z,7.78
2023-01-12T09:51:53.369Z,7.84
2023-01-12T09:54:22.469Z,7.92
2023-01-12T09:56:58.033Z,7.99
2023-01-12T09:59:44.783Z,8.03
2023-01-12T10:02:14.234Z,8.07
2023-01-12T10:04:42.001Z,8.09
2023-01-12T10:07:15.405Z,8.13
2023-01-12T10:09:44.666Z,8.15
2023-01-12T10:12:21.327Z,8.23
2023-01-12T10:15:05.649Z,8.29
2023-01-12T10:17:50.550Z,8.35
2023-01-12T10:20:28.109Z,8.43
2023-01-12T10:22:59.386Z,8.49
2023-01-12T10:25:35.834Z,8.54
2023-01-12T10:28:09.059Z,8.63
2023-01-12T10:30:39.216Z,8.67
2023-01-12T10:33:15.416Z,8.68
2023-01-12T10:35:52.320Z,8.73
2023-01-12T10:38:23.863Z,8.78
2023-01-12T10:41:07.485Z,8.83
2023-01-12T10:43:35.373Z,8.87
2023-01-12T10:46:11.657Z,8.92
2023-01-12T10:48:42.687Z,8.95
2023-01-12T10:51:21.731Z,8.96
2023-01-12T10:53:52.482Z,8.97
2023-01-12T10:56:27.492Z,8.98
2023-01-12T10:58:59.088Z,9.00
2023-01-12T11:01:26.908Z,8.99
2023-01-12T11:04:05.439Z,9.01
2023-01-12T11:06:33.102Z,9.07
2023-01-12T11:09:18.682Z,9.07
2023-01-12T11:11:47.653Z,9.09
2023-01-12T11:14:25.113Z,9.07
2023-01-12T11:16:52.852Z,9.06
2023-01-12T11:19:26.666Z,9.08
2023-01-12T11:22:01.251Z,9.12
2023-01-12T11:24:37.275Z,9.13
2023-01-12T11:27:15.768Z,9.13
2023-01-12T11:29:54.336Z,9.15
2023-01-12T11:32:32.530Z,9.14
2023-01-12T11:35:05.590Z,9.17
2023-01-12T11:37:38.222Z,9.17
2023-01-12T11:40:16.626Z,9.15
2023-01-12T11:43:04.956Z,9.13
2023-01-12T11:45:43.257Z,9.12
2023-01-12T11:48:21.164Z,9.17
2023-01-12T11:50:50.933Z,9.17
2023-01-12T11:53:22.476Z,9.18
2023-01-12T11:56:01.843Z,9.22
2023-01-12T11:58:39.228Z,9.18
2023-01-12T12:01:16.104Z,9.16
2023-01-12T12:03:55.501Z,9.23
2023-01-12T12:06:50.065Z,9.28
2023-01-12T12:09:41.941Z,9.30
2023-01-12T12:12:17.912Z,9.24
2023-01-12T12:14:59.406Z,9.20
2023-01-12T12:17:41.900Z,9.15
2023-01-12T12:20:19.123Z,9.15
2023-01-12T12:23:15.227Z,9.07
2023-01-12T12:25:57.549Z,9.07
2023-01-12T12:28:48.288Z,9.09
2023-01-12T12:31:38.692Z,9.08
2023-01-12T12:34:28.705Z,9.06
2023-01-12T12:37:06.311Z,9.06
2023-01-12T12:39:48.993Z,9.03
2023-01-12T12:42:58.083Z,9.00
2023-01-12T12:45:38.315Z,8.91
2023-01-12T12:48:14.441Z,8.95
2023-01-12T12:50:48.106Z,8.93
2023-01-12T12:53:21.272Z,8.96
2023-01-12T12:55:51.549Z,8.92
2023-01-12T12:58:46.840Z,8.98
2023-01-12T13:01:56.963Z,8.95
2023-01-12T13:05:05.329Z,8.94
2023-01-12T13:07:36.990Z,8.89
2023-01-12T13:10:20.562Z,8.79
2023-01-12T13:12:58.033Z,8.79
2023-01-12T13:15:36.005Z,8.79
2023-01-12T13:18:05.964Z,8.72
2023-01-12T13:20:55.642Z,8.72
2023-01-12T13:24:22.092Z,8.73
2023-01-12T13:26:52.368Z,8.66
2023-01-12T13:29:40.670Z,8.66
2023-01-12T13:32:43.608Z,8.62
2023-01-12T13:35:40.561Z,8.59
2023-01-12T13:38:17.008Z,8.57
2023-01-12T13:40:55.592Z,8.50
2023-01-12T13:43:27.446Z,8.51
2023-01-12T13:45:58.818Z,8.48
2023-01-12T13:48:28.667Z,8.41
2023-01-12T13:50:59.891Z,8.37
2023-01-12T13:53:31.863Z,8.33
2023-01-12T13:56:01.044Z,8.37
2023-01-12T13:58:30.084Z,8.37
2023-01-12T14:01:00.171Z,8.34
2023-01-12T14:03:42.661Z,8.38
2023-01-12T14:06:24.206Z,8.37
2023-01-12T14:09:03.607Z,8.39
2023-01-12T14:12:09.523Z,8.40
2023-01-12T14:15:12.543Z,8.34
2023-01-12T14:17:57.450Z,8.33
2023-01-12T14:20:26.999Z,8.34
2023-01-12T14:23:13.720Z,8.37
2023-01-12T14:25:43.680Z,8.39
2023-01-12T14:28:19.584Z,8.41
2023-01-12T14:30:50.192Z,8.39
2023-01-12T14:33:20.344Z,8.40
2023-01-12T14:35:50.092Z,8.41
2023-01-12T14:38:20.267Z,8.34
2023-01-12T14:41:00.635Z,8.42
2023-01-12T14:43:49.752Z,8.34
2023-01-12T14:46:28.042Z,8.33
2023-01-12T14:48:57.965Z,8.32
2023-01-12T14:51:28.092Z,8.28
2023-01-12T14:53:58.796Z,8.25
2023-01-12T14:56:30.925Z,8.24
2023-01-12T14:59:13.720Z,8.18
2023-01-12T15:01:42.514Z,8.13
2023-01-12T15:04:17.718Z,8.03
2023-01-12T15:06:46.577Z,8.00
2023-01-12T15:09:27.672Z,7.93
2023-01-12T15:11:56.641Z,7.89
2023-01-12T15:14:26.587Z,7.86
2023-01-12T15:17:12.732Z,7.80
2023-01-12T15:19:58.298Z,7.80
2023-01-12T15:22:45.466Z,7.82
2023-01-12T15:25:32.275Z,7.76
2023-01-12T15:28:01.465Z,7.74
2023-01-12T15:30:29.505Z,7.75
2023-01-12T15:32:57.562Z,7.74
2023-01-12T15:35:27.636Z,7.71
2023-01-12T15:37:57.236Z,7.70
2023-01-12T15:40:25.694Z,7.71
2023-01-12T15:42:54.033Z,7.72
2023-01-12T15:45:30.846Z,7.72
2023-01-12T15:47:58.505Z,7.72
2023-01-12T15:50:26.111Z,7.73
2023-01-12T15:52:53.993Z,7.71
2023-01-12T15:55:23.468Z,7.71
2023-01-12T15:57:52.218Z,7.69
2023-01-12T16:00:22.775Z,7.66
2023-01-12T16:02:53.294Z,7.60
2023-01-12T16:05:23.061Z,7.57
2023-01-12T16:07:50.922Z,7.51
2023-01-12T16:10:18.848Z,7.51
2023-01-12T16:12:47.831Z,7.51
2023-01-12T16:15:18.124Z,7.53
2023-01-12T16:17:45.814Z,7.55
2023-01-12T16:20:17.409Z,7.56
2023-01-12T16:22:46.582Z,7.58
2023-01-12T16:25:15.459Z,7.57
2023-01-12T16:27:43.362Z,7.57
2023-01-12T16:30:14.890Z,7.58
2023-01-12T16:32:46.339Z,7.57
2023-01-12T16:35:16.431Z,7.58
2023-01-12T16:37:44.590Z,7.59
2023-01-12T16:40:13.547Z,7.60
2023-01-12T16:42:41.141Z,7.59
2023-01-12T16:45:09.851Z,7.63
2023-01-12T16:47:37.441Z,7.63
2023-01-12T16:50:05.586Z,7.64
2023-01-12T16:52:34.518Z,7.65
2023-01-12T16:55:02.067Z,7.65
2023-01-12T16:57:29.667Z,7.67
2023-01-12T16:59:57.214Z,7.68
2023-01-12T17:02:24.987Z,7.70
2023-01-12T17:04:53.381Z,7.69
2023-01-12T17:07:21.220Z,7.70
2023-01-12T17:09:50.300Z,7.72
2023-01-12T17:12:18.425Z,7.74
2023-01-12T17:14:46.282Z,7.76
2023-01-12T17:17:14.074Z,7.78
2023-01-12T17:19:43.477Z,7.78
2023-01-12T17:22:12.179Z,7.78
2023-01-12T17:24:41.062Z,7.78
2023-01-12T17:27:11.519Z,7.78
2023-01-12T17:29:39.421Z,7.74
2023-01-12T17:32:08.357Z,7.78
2023-01-12T17:34:37.766Z,7.78
2023-01-12T17:37:08.272Z,7.78
2023-01-12T17:39:36.446Z,7.76
2023-01-12T17:42:22.419Z,7.75
2023-01-12T17:44:51.438Z,7.76
2023-01-12T17:47:19.153Z,7.76
2023-01-12T17:49:47.750Z,7.76
2023-01-12T17:52:15.522Z,7.77
2023-01-12T17:54:43.159Z,7.76
2023-01-12T17:57:11.095Z,7.76
2023-01-12T17:59:39.088Z,7.77
2023-01-12T18:02:08.323Z,7.77
2023-01-12T18:04:35.990Z,7.80
2023-01-12T18:07:03.657Z,7.82
2023-01-12T18:09:31.360Z,7.82
2023-01-12T18:12:00.216Z,7.82
2023-01-12T18:14:28.010Z,7.84
2023-01-12T18:16:55.567Z,7.84
2023-01-12T18:19:24.573Z,7.85
2023-01-12T18:21:52.138Z,7.87
2023-01-12T18:24:19.929Z,7.88
2023-01-12T18:26:48.118Z,7.89
2023-01-12T18:29:15.707Z,7.90
2023-01-12T18:31:43.459Z,7.91
2023-01-12T18:34:11.516Z,7.93
2023-01-12T18:36:42.268Z,7.94
2023-01-12T18:39:14.238Z,7.96
2023-01-12T18:41:59.217Z,7.98
2023-01-12T18:44:27.151Z,8.01
2023-01-12T18:47:12.742Z,8.03
2023-01-12T18:49:40.674Z,8.07
2023-01-12T18:52:29.749Z,8.09
2023-01-12T18:54:58.674Z,8.13
2023-01-12T18:57:28.747Z,8.18
2023-01-12T19:00:00.153Z,8.21
2023-01-12T19:02:28.827Z,8.26
2023-01-12T19:05:18.900Z,8.29
2023-01-12T19:08:24.399Z,8.32
2023-01-12T19:10:52.219Z,8.36
2023-01-12T19:13:37.260Z,8.39
2023-01-12T19:16:23.256Z,8.41
2023-01-12T19:18:50.940Z,8.46
2023-01-12T19:21:36.115Z,8.48
2023-01-12T19:24:23.153Z,8.51
2023-01-12T19:27:10.633Z,8.55
2023-01-12T19:29:40.533Z,8.62
2023-01-12T19:32:09.029Z,8.64
2023-01-12T19:34:36.592Z,8.71
2023-01-12T19:37:04.967Z,8.75
2023-01-12T19:39:59.695Z,8.80
2023-01-12T19:42:45.492Z,8.87
2023-01-12T19:45:13.329Z,8.92
2023-01-12T19:47:41.295Z,8.97
2023-01-12T19:50:10.943Z,9.00
2023-01-12T19:52:39.512Z,9.04
2023-01-12T19:55:12.110Z,9.06
2023-01-12T19:57:40.246Z,9.11
2023-01-12T20:00:12.883Z,9.13
2023-01-12T20:02:41.098Z,9.17
2023-01-12T20:05:13.176Z,9.19
2023-01-12T20:07:41.345Z,9.20
2023-01-12T20:10:11.442Z,9.24
2023-01-12T20:12:39.098Z,9.26
2023-01-12T20:15:07.583Z,9.28
2023-01-12T20:17:36.172Z,9.30
2023-01-12T20:20:08.070Z,9.33
2023-01-12T20:22:36.110Z,9.34
2023-01-12T20:25:03.760Z,9.36
2023-01-12T20:27:33.661Z,9.36
2023-01-12T20:30:01.756Z,9.39
2023-01-12T20:32:31.686Z,9.40
2023-01-12T20:35:00.122Z,9.41
2023-01-12T20:37:27.811Z,9.42
2023-01-12T20:39:57.502Z,9.43
2023-01-12T20:42:25.364Z,9.45
2023-01-12T20:44:54.372Z,9.47
2023-01-12T20:47:22.027Z,9.47
2023-01-12T20:49:49.636Z,9.48
2023-01-12T20:52:17.233Z,9.48
2023-01-12T20:54:45.012Z,9.49
2023-01-12T20:57:12.951Z,9.49
2023-01-12T20:59:41.040Z,9.52
2023-01-12T21:02:11.559Z,9.53
2023-01-12T21:04:39.104Z,9.52
2023-01-12T21:07:06.768Z,9.56
2023-01-12T21:09:34.447Z,9.56
2023-01-12T21:12:02.112Z,9.57
2023-01-12T21:14:30.022Z,9.56
2023-01-12T21:16:57.595Z,9.58
2023-01-12T21:19:26.623Z,9.56
2023-01-12T21:21:54.191Z,9.59
2023-01-12T21:24:21.791Z,9.58
2023-01-12T21:26:49.367Z,9.60
2023-01-12T21:29:17.057Z,9.61
2023-01-12T21:31:44.677Z,9.61
2023-01-12T21:34:12.299Z,9.63
2023-01-12T21:36:41.242Z,9.65
2023-01-12T21:39:09.166Z,9.67
2023-01-12T21:41:56.825Z,9.70
2023-01-12T21:44:23.425Z,9.71
2023-01-12T21:46:50.988Z,9.71
2023-01-12T21:49:18.927Z,9.74
2023-01-12T21:51:47.881Z,9.76
2023-01-12T21:54:15.497Z,9.74
2023-01-12T21:56:43.084Z,9.78
2023-01-12T21:59:11.707Z,9.80
2023-01-12T22:01:39.871Z,9.80
2023-01-12T22:04:07.586Z,9.81
2023-01-12T22:06:35.241Z,9.82
2023-01-12T22:09:04.393Z,9.79
2023-01-12T22:11:31.991Z,9.83
2023-01-12T22:13:59.556Z,9.85
2023-01-12T22:16:27.203Z,9.84
2023-01-12T22:18:54.872Z,9.82
2023-01-12T22:21:23.654Z,9.83
2023-01-12T22:23:51.279Z,9.83
2023-01-12T22:26:20.946Z,9.87
2023-01-12T22:28:50.208Z,9.84
2023-01-12T22:31:20.404Z,9.85
2023-01-12T22:33:48.898Z,9.85
2023-01-12T22:36:16.583Z,9.89
2023-01-12T22:38:44.170Z,9.88
2023-01-12T22:41:13.533Z,9.86
2023-01-12T22:43:42.452Z,9.85
2023-01-12T22:46:14.570Z,9.86
2023-01-12T22:48:42.316Z,9.87
2023-01-12T22:51:10.024Z,9.85
2023-01-12T22:53:37.579Z,9.84
2023-01-12T22:56:06.220Z,9.85
2023-01-12T22:58:34.548Z,9.84
2023-01-12T23:01:08.371Z,9.82
2023-01-12T23:03:37.024Z,9.81
2023-01-12T23:06:06.264Z,9.75
2023-01-12T23:08:34.078Z,9.71
2023-01-12T23:11:05.896Z,9.73
2023-01-12T23:13:33.893Z,9.71
2023-01-12T23:16:04.315Z,9.68
2023-01-12T23:18:34.623Z,9.48
2023-01-12T23:21:04.280Z,9.32
2023-01-12T23:23:32.867Z,9.13
2023-01-12T23:26:03.877Z,9.03
2023-01-12T23:28:35.566Z,8.86
2023-01-12T23:31:04.964Z,8.75
2023-01-12T23:33:34.202Z,8.69
2023-01-12T23:36:06.550Z,8.57
2023-01-12T23:38:34.422Z,8.49
2023-01-12T23:41:10.623Z,8.40
2023-01-12T23:43:38.529Z,8.30
2023-01-12T23:46:06.842Z,8.22
2023-01-12T23:48:35.995Z,8.20
2023-01-12T23:51:03.860Z,8.14
2023-01-12T23:53:32.120Z,8.11
2023-01-12T23:56:05.570Z,8.07
2023-01-12T23:58:33.738Z,8.03
